Terminal Aerodrome Forecast
Issued by NWS

Home | Current Version | Previous Version | Text Only | Print | Product List | Glossary On
Versions: 1 2 3 4 5 6 7 8 9 10 11 12 13 14 15 16
883
FTUS43 KJKL 251741
TAFSJS
TAF
KSJS 251741Z 2518/2618 33005KT P6SM VCSH FEW008 BKN015 OVC030
     FM260000 32005KT P6SM VCSH SCT020 BKN035
     FM260600 VRB03KT 1SM BR OVC015
     FM260900 00000KT 1/2SM FG OVC003
     FM261400 07006KT P6SM BKN035=

USA.gov is the U.S. government's official web portal to all federal, state and local government web resources and services.